This is the latest recevied weather packets stored in our database for station/object KB3AWQ. If no packets are shown the sender has not sent any weather packets the latest 10 day(s).
| Time | Temp. | Humidity | Pressure | Rain* | Wind** | Luminosity | Snow |
|---|---|---|---|---|---|---|---|
| 1788036266 | 26.11° C | 47% | 1023 hPa | 0 mm | - | 63 W/m² | - |
| 1788035966 | 26.11° C | 47% | 1023.1 hPa | 0 mm | - | 67 W/m² | - |
| 1788035366 | 26.67° C | 46% | 1023.2 hPa | 0 mm | - | 79 W/m² | - |
| 1788035067 | 26.67° C | 48% | 1023.2 hPa | 0 mm | - | 293 W/m² | - |
| 1788034767 | 27.22° C | 45% | 1023.3 hPa | 0 mm | - | 507 W/m² | - |
| 1788034466 | 27.22° C | 45% | 1023.4 hPa | 0 mm | - | 522 W/m² | - |
| 1788034166 | 27.22° C | 46% | 1023.4 hPa | 0 mm | - | 536 W/m² | - |
| 1788033866 | 27.22° C | 47% | 1023.4 hPa | 0 mm | - | 553 W/m² | - |
| 1788033566 | 27.22° C | 46% | 1023.5 hPa | 0 mm | - | 569 W/m² | - |
| 1788033266 | 27.22° C | 46% | 1023.5 hPa | 0 mm | - | 583 W/m² | - |
| 1788032966 | 27.78° C | 47% | 1023.5 hPa | 0 mm | - | 600 W/m² | - |
| 1788032671 | 27.78° C | 48% | 1023.5 hPa | 0 mm | - | 616 W/m² | - |
| 1788032368 | 27.78° C | 48% | 1023.4 hPa | 0 mm | - | 629 W/m² | - |
| 1788032067 | 27.78° C | 47% | 1023.4 hPa | 0 mm | - | 642 W/m² | - |
| 1788031766 | 27.78° C | 47% | 1023.5 hPa | 0 mm | - | 656 W/m² | - |
| 1788031466 | 27.78° C | 46% | 1023.7 hPa | 0 mm | - | 668 W/m² | - |
| 1788031166 | 27.78° C | 45% | 1023.7 hPa | 0 mm | - | 680 W/m² | - |
| 1788030868 | 27.78° C | 45% | 1023.9 hPa | 0 mm | - | 690 W/m² | - |
| 1788030566 | 27.78° C | 45% | 1023.9 hPa | 0 mm | - | 702 W/m² | - |
| 1788030266 | 27.22° C | 47% | 1024.1 hPa | 0 mm | - | 718 W/m² | - |
| 1788029967 | 27.22° C | 48% | 1024.1 hPa | 0 mm | - | 729 W/m² | - |
| 1788029666 | 27.22° C | 47% | 1024.2 hPa | 0 mm | - | 741 W/m² | - |
| 1788029366 | 26.67° C | 48% | 1024.3 hPa | 0 mm | - | 751 W/m² | - |
| 1788029066 | 26.11° C | 47% | 1024.3 hPa | 0 mm | - | 761 W/m² | - |
| 1788028767 | 25.56° C | 53% | 1024.4 hPa | 0 mm | - | 770 W/m² | - |
* Rain latest hour (hover to see other rain measurements)
** Current wind speed in m/s (hover to see current wind gust speed)